sensor_id;sensor_type;location;lat;lon;timestamp;pressure;altitude;pressure_sealevel;temperature;humidity
69245;BME280;56357;52.304;4.870;2023-10-08T00:02:17;102509.47;;;22.27;64.73
69245;BME280;56357;52.304;4.870;2023-10-08T00:04:48;102521.03;;;22.25;64.56
69245;BME280;56357;52.304;4.870;2023-10-08T00:07:17;102520.50;;;22.28;64.67
69245;BME280;56357;52.304;4.870;2023-10-08T00:09:50;102516.19;;;22.21;64.71
69245;BME280;56357;52.304;4.870;2023-10-08T00:12:18;102507.16;;;22.19;64.65
69245;BME280;56357;52.304;4.870;2023-10-08T00:14:46;102519.50;;;22.13;65.42
69245;BME280;56357;52.304;4.870;2023-10-08T00:17:16;102508.53;;;22.16;64.89
69245;BME280;56357;52.304;4.870;2023-10-08T00:19:43;102513.31;;;22.16;64.87
69245;BME280;56357;52.304;4.870;2023-10-08T00:22:11;102522.03;;;22.09;65.17
69245;BME280;56357;52.304;4.870;2023-10-08T00:24:39;102516.09;;;22.11;65.09
69245;BME280;56357;52.304;4.870;2023-10-08T00:27:09;102505.91;;;22.10;65.39
69245;BME280;56357;52.304;4.870;2023-10-08T00:29:40;102498.00;;;22.07;65.13
69245;BME280;56357;52.304;4.870;2023-10-08T00:32:09;102494.06;;;22.08;65.31
69245;BME280;56357;52.304;4.870;2023-10-08T00:34:39;102487.25;;;22.04;65.23
69245;BME280;56357;52.304;4.870;2023-10-08T00:37:09;102473.41;;;22.02;65.19
69245;BME280;56357;52.304;4.870;2023-10-08T00:39:39;102481.88;;;22.02;65.20
69245;BME280;56357;52.304;4.870;2023-10-08T00:42:06;102485.56;;;22.03;65.61
69245;BME280;56357;52.304;4.870;2023-10-08T00:44:35;102488.09;;;22.04;65.09
69245;BME280;56357;52.304;4.870;2023-10-08T00:47:06;102487.78;;;22.01;65.74
69245;BME280;56357;52.304;4.870;2023-10-08T00:49:36;102467.19;;;22.00;65.23
69245;BME280;56357;52.304;4.870;2023-10-08T00:52:14;102481.88;;;22.02;65.37
69245;BME280;56357;52.304;4.870;2023-10-08T00:54:54;102471.06;;;21.94;65.25
69245;BME280;56357;52.304;4.870;2023-10-08T00:57:33;102478.47;;;22.00;65.39
69245;BME280;56357;52.304;4.870;2023-10-08T01:00:00;102478.75;;;21.99;65.27
69245;BME280;56357;52.304;4.870;2023-10-08T01:02:30;102477.06;;;21.98;65.37
69245;BME280;56357;52.304;4.870;2023-10-08T01:05:09;102467.44;;;21.99;65.56
69245;BME280;56357;52.304;4.870;2023-10-08T01:07:39;102473.66;;;21.96;65.29
69245;BME280;56357;52.304;4.870;2023-10-08T01:10:10;102477.88;;;21.98;65.53
69245;BME280;56357;52.304;4.870;2023-10-08T01:12:39;102497.59;;;21.93;65.63
69245;BME280;56357;52.304;4.870;2023-10-08T01:15:21;102508.88;;;21.93;65.49
69245;BME280;56357;52.304;4.870;2023-10-08T01:17:53;102511.41;;;21.95;65.42
69245;BME280;56357;52.304;4.870;2023-10-08T01:20:25;102514.78;;;21.92;65.84
69245;BME280;56357;52.304;4.870;2023-10-08T01:23:10;102513.66;;;21.93;65.63
69245;BME280;56357;52.304;4.870;2023-10-08T01:25:44;102508.00;;;21.93;65.81
69245;BME280;56357;52.304;4.870;2023-10-08T01:28:16;102530.59;;;21.93;65.71
69245;BME280;56357;52.304;4.870;2023-10-08T01:30:51;102534.78;;;21.90;65.77
69245;BME280;56357;52.304;4.870;2023-10-08T01:33:19;102541.28;;;21.91;65.79
69245;BME280;56357;52.304;4.870;2023-10-08T01:35:48;102538.47;;;21.91;65.45
69245;BME280;56357;52.304;4.870;2023-10-08T01:38:14;102555.38;;;21.91;65.46
69245;BME280;56357;52.304;4.870;2023-10-08T01:40:48;102553.41;;;21.91;65.32
69245;BME280;56357;52.304;4.870;2023-10-08T01:43:16;102564.97;;;21.90;65.58
69245;BME280;56357;52.304;4.870;2023-10-08T01:45:44;102570.63;;;21.90;65.54
69245;BME280;56357;52.304;4.870;2023-10-08T01:48:14;102568.72;;;21.95;65.49
69245;BME280;56357;52.304;4.870;2023-10-08T01:50:45;102564.44;;;21.93;65.41
69245;BME280;56357;52.304;4.870;2023-10-08T01:53:13;102555.38;;;21.91;65.75
69245;BME280;56357;52.304;4.870;2023-10-08T01:55:41;102568.91;;;21.89;65.71
69245;BME280;56357;52.304;4.870;2023-10-08T01:58:19;102562.66;;;21.87;65.72
69245;BME280;56357;52.304;4.870;2023-10-08T02:00:48;102556.19;;;21.86;65.65
69245;BME280;56357;52.304;4.870;2023-10-08T02:03:17;102557.84;;;21.82;65.86
69245;BME280;56357;52.304;4.870;2023-10-08T02:05:45;102535.88;;;21.84;65.74
69245;BME280;56357;52.304;4.870;2023-10-08T02:08:12;102567.22;;;21.88;65.23
69245;BME280;56357;52.304;4.870;2023-10-08T02:10:40;102570.91;;;21.88;65.59
69245;BME280;56357;52.304;4.870;2023-10-08T02:13:08;102562.44;;;21.88;65.42
69245;BME280;56357;52.304;4.870;2023-10-08T02:15:36;102574.53;;;21.89;65.31
69245;BME280;56357;52.304;4.870;2023-10-08T02:18:04;102547.38;;;21.82;65.44
69245;BME280;56357;52.304;4.870;2023-10-08T02:20:30;102548.78;;;21.80;65.74
69245;BME280;56357;52.304;4.870;2023-10-08T02:22:58;102553.03;;;21.82;65.53
69245;BME280;56357;52.304;4.870;2023-10-08T02:25:25;102546.34;;;21.89;64.96
69245;BME280;56357;52.304;4.870;2023-10-08T02:27:51;102503.72;;;21.85;65.28
69245;BME280;56357;52.304;4.870;2023-10-08T02:30:18;102551.94;;;21.83;65.55
69245;BME280;56357;52.304;4.870;2023-10-08T02:32:44;102585.56;;;21.90;65.28
69245;BME280;56357;52.304;4.870;2023-10-08T02:35:11;102558.47;;;21.89;65.25
69245;BME280;56357;52.304;4.870;2023-10-08T02:37:39;102563.47;;;21.82;65.09
69245;BME280;56357;52.304;4.870;2023-10-08T02:40:07;102587.22;;;21.86;64.99
69245;BME280;56357;52.304;4.870;2023-10-08T02:42:41;102548.84;;;21.85;64.88
69245;BME280;56357;52.304;4.870;2023-10-08T02:45:10;102543.97;;;21.80;65.14
69245;BME280;56357;52.304;4.870;2023-10-08T02:47:41;102561.75;;;21.81;65.23
69245;BME280;56357;52.304;4.870;2023-10-08T02:50:10;102571.34;;;21.80;64.97
69245;BME280;56357;52.304;4.870;2023-10-08T02:52:41;102555.44;;;21.74;65.32
69245;BME280;56357;52.304;4.870;2023-10-08T02:55:10;102564.81;;;21.79;65.33
69245;BME280;56357;52.304;4.870;2023-10-08T02:57:48;102556.91;;;21.76;65.08
69245;BME280;56357;52.304;4.870;2023-10-08T03:00:16;102558.28;;;21.74;65.47
69245;BME280;56357;52.304;4.870;2023-10-08T03:02:45;102577.19;;;21.78;65.26
69245;BME280;56357;52.304;4.870;2023-10-08T03:05:12;102573.28;;;21.79;64.77
69245;BME280;56357;52.304;4.870;2023-10-08T03:07:42;102558.53;;;21.72;65.47
69245;BME280;56357;52.304;4.870;2023-10-08T03:10:08;102549.75;;;21.69;65.43
69245;BME280;56357;52.304;4.870;2023-10-08T03:12:45;102561.25;;;21.84;64.71
69245;BME280;56357;52.304;4.870;2023-10-08T03:15:14;102589.50;;;21.89;64.47
69245;BME280;56357;52.304;4.870;2023-10-08T03:17:53;102591.31;;;21.78;64.53
69245;BME280;56357;52.304;4.870;2023-10-08T03:20:23;102619.16;;;21.92;64.56
69245;BME280;56357;52.304;4.870;2023-10-08T03:23:16;102645.00;;;21.83;64.28
69245;BME280;56357;52.304;4.870;2023-10-08T03:25:59;102628.59;;;21.80;64.37
69245;BME280;56357;52.304;4.870;2023-10-08T03:28:29;102624.84;;;21.75;64.45
69245;BME280;56357;52.304;4.870;2023-10-08T03:31:00;102628.09;;;21.67;64.27
69245;BME280;56357;52.304;4.870;2023-10-08T03:33:34;102628.19;;;21.72;64.76
69245;BME280;56357;52.304;4.870;2023-10-08T03:36:06;102623.28;;;21.62;64.45
69245;BME280;56357;52.304;4.870;2023-10-08T03:38:39;102627.66;;;21.53;64.54
69245;BME280;56357;52.304;4.870;2023-10-08T03:41:16;102629.50;;;21.64;64.56
69245;BME280;56357;52.304;4.870;2023-10-08T03:43:45;102620.31;;;21.74;64.66
69245;BME280;56357;52.304;4.870;2023-10-08T03:46:19;102639.31;;;21.62;64.52
69245;BME280;56357;52.304;4.870;2023-10-08T03:48:47;102645.50;;;21.59;64.32
69245;BME280;56357;52.304;4.870;2023-10-08T03:51:16;102668.44;;;21.67;64.36
69245;BME280;56357;52.304;4.870;2023-10-08T03:53:45;102688.13;;;21.62;64.39
69245;BME280;56357;52.304;4.870;2023-10-08T03:56:27;102689.22;;;21.61;64.43
69245;BME280;56357;52.304;4.870;2023-10-08T03:58:55;102680.41;;;21.74;63.95
69245;BME280;56357;52.304;4.870;2023-10-08T04:01:25;102683.53;;;21.56;63.83
69245;BME280;56357;52.304;4.870;2023-10-08T04:03:56;102693.16;;;21.60;64.14
69245;BME280;56357;52.304;4.870;2023-10-08T04:06:27;102681.94;;;21.65;63.91
69245;BME280;56357;52.304;4.870;2023-10-08T04:09:03;102681.41;;;21.47;63.80
69245;BME280;56357;52.304;4.870;2023-10-08T04:11:42;102680.09;;;21.54;63.71
69245;BME280;56357;52.304;4.870;2023-10-08T04:14:24;102677.34;;;21.59;64.13
69245;BME280;56357;52.304;4.870;2023-10-08T04:16:52;102676.75;;;21.57;64.25
69245;BME280;56357;52.304;4.870;2023-10-08T04:19:20;102671.06;;;21.52;64.07
69245;BME280;56357;52.304;4.870;2023-10-08T04:21:55;102659.91;;;21.41;63.80
69245;BME280;56357;52.304;4.870;2023-10-08T04:24:26;102647.69;;;21.35;64.65
69245;BME280;56357;52.304;4.870;2023-10-08T04:27:00;102635.06;;;21.38;63.70
69245;BME280;56357;52.304;4.870;2023-10-08T04:29:28;102645.47;;;21.37;63.88
69245;BME280;56357;52.304;4.870;2023-10-08T04:31:58;102643.69;;;21.31;64.10
69245;BME280;56357;52.304;4.870;2023-10-08T04:34:33;102663.59;;;21.25;64.33
69245;BME280;56357;52.304;4.870;2023-10-08T04:37:00;102675.72;;;21.25;64.17
69245;BME280;56357;52.304;4.870;2023-10-08T04:39:28;102693.81;;;21.29;64.19
69245;BME280;56357;52.304;4.870;2023-10-08T04:42:02;102692.13;;;21.28;64.31
69245;BME280;56357;52.304;4.870;2023-10-08T04:44:32;102689.91;;;21.30;64.12
69245;BME280;56357;52.304;4.870;2023-10-08T04:46:59;102690.34;;;21.22;64.58
69245;BME280;56357;52.304;4.870;2023-10-08T04:49:32;102689.81;;;21.25;64.26
69245;BME280;56357;52.304;4.870;2023-10-08T04:52:01;102696.31;;;21.26;64.18
69245;BME280;56357;52.304;4.870;2023-10-08T04:54:33;102668.38;;;21.24;64.39
69245;BME280;56357;52.304;4.870;2023-10-08T04:57:06;102675.06;;;21.18;64.95
69245;BME280;56357;52.304;4.870;2023-10-08T04:59:43;102682.75;;;21.23;64.96
69245;BME280;56357;52.304;4.870;2023-10-08T05:02:12;102691.25;;;21.28;64.72
69245;BME280;56357;52.304;4.870;2023-10-08T05:04:59;102700.81;;;21.43;64.13
69245;BME280;56357;52.304;4.870;2023-10-08T05:07:44;102707.13;;;21.50;64.47
69245;BME280;56357;52.304;4.870;2023-10-08T05:10:56;102707.84;;;21.24;64.94
69245;BME280;56357;52.304;4.870;2023-10-08T05:13:40;102708.44;;;21.26;64.62
69245;BME280;56357;52.304;4.870;2023-10-08T05:16:20;102709.28;;;21.43;63.77
69245;BME280;56357;52.304;4.870;2023-10-08T05:19:01;102708.13;;;21.44;63.58
69245;BME280;56357;52.304;4.870;2023-10-08T05:21:49;102699.78;;;21.49;64.33
69245;BME280;56357;52.304;4.870;2023-10-08T05:24:31;102699.78;;;21.33;64.00
69245;BME280;56357;52.304;4.870;2023-10-08T05:27:06;102697.91;;;21.38;64.34
69245;BME280;56357;52.304;4.870;2023-10-08T05:29:49;102706.56;;;21.32;64.53
69245;BME280;56357;52.304;4.870;2023-10-08T05:32:36;102718.13;;;21.68;63.66
69245;BME280;56357;52.304;4.870;2023-10-08T05:35:17;102733.63;;;21.49;63.26
69245;BME280;56357;52.304;4.870;2023-10-08T05:38:01;102730.94;;;21.59;63.25
69245;BME280;56357;52.304;4.870;2023-10-08T05:40:42;102725.28;;;21.59;63.57
69245;BME280;56357;52.304;4.870;2023-10-08T05:43:28;102718.81;;;21.59;63.84
69245;BME280;56357;52.304;4.870;2023-10-08T05:46:14;102703.41;;;21.28;64.91
69245;BME280;56357;52.304;4.870;2023-10-08T05:49:00;102699.31;;;21.57;64.80
69245;BME280;56357;52.304;4.870;2023-10-08T05:51:29;102702.00;;;21.31;64.30
69245;BME280;56357;52.304;4.870;2023-10-08T05:54:11;102719.78;;;21.31;65.38
69245;BME280;56357;52.304;4.870;2023-10-08T05:56:51;102741.97;;;21.44;64.10
69245;BME280;56357;52.304;4.870;2023-10-08T05:59:34;102755.56;;;21.47;64.10
69245;BME280;56357;52.304;4.870;2023-10-08T06:02:26;102758.97;;;21.33;64.77
69245;BME280;56357;52.304;4.870;2023-10-08T06:04:54;102765.53;;;21.38;64.95
69245;BME280;56357;52.304;4.870;2023-10-08T06:07:47;102753.94;;;21.35;64.99
69245;BME280;56357;52.304;4.870;2023-10-08T06:10:17;102754.78;;;21.68;64.98
69245;BME280;56357;52.304;4.870;2023-10-08T06:13:11;102764.53;;;21.44;64.63
69245;BME280;56357;52.304;4.870;2023-10-08T06:15:43;102773.94;;;21.33;65.01
69245;BME280;56357;52.304;4.870;2023-10-08T06:18:30;102772.13;;;21.60;65.74
69245;BME280;56357;52.304;4.870;2023-10-08T06:21:04;102752.84;;;21.91;64.21
69245;BME280;56357;52.304;4.870;2023-10-08T06:23:33;102762.38;;;22.06;63.64
69245;BME280;56357;52.304;4.870;2023-10-08T06:26:02;102757.47;;;21.97;63.58
69245;BME280;56357;52.304;4.870;2023-10-08T06:28:40;102761.25;;;21.69;62.50
69245;BME280;56357;52.304;4.870;2023-10-08T06:31:08;102774.94;;;21.27;62.92
69245;BME280;56357;52.304;4.870;2023-10-08T06:33:38;102776.97;;;21.15;62.42
69245;BME280;56357;52.304;4.870;2023-10-08T06:36:06;102792.38;;;21.24;62.37
69245;BME280;56357;52.304;4.870;2023-10-08T06:38:45;102791.97;;;21.32;62.40
69245;BME280;56357;52.304;4.870;2023-10-08T06:41:14;102788.69;;;21.40;62.66
69245;BME280;56357;52.304;4.870;2023-10-08T06:43:49;102788.19;;;21.60;62.57
69245;BME280;56357;52.304;4.870;2023-10-08T06:46:28;102779.72;;;21.60;62.25
69245;BME280;56357;52.304;4.870;2023-10-08T06:49:02;102788.34;;;21.37;62.50
69245;BME280;56357;52.304;4.870;2023-10-08T06:51:29;102785.38;;;21.43;62.14
69245;BME280;56357;52.304;4.870;2023-10-08T06:53:58;102787.91;;;21.61;62.49
69245;BME280;56357;52.304;4.870;2023-10-08T06:56:26;102793.50;;;21.56;62.04
69245;BME280;56357;52.304;4.870;2023-10-08T06:58:53;102812.09;;;21.41;62.37
69245;BME280;56357;52.304;4.870;2023-10-08T07:01:20;102803.31;;;21.37;62.79
69245;BME280;56357;52.304;4.870;2023-10-08T07:03:48;102793.66;;;21.33;62.87
69245;BME280;56357;52.304;4.870;2023-10-08T07:06:16;102799.22;;;21.28;63.41
69245;BME280;56357;52.304;4.870;2023-10-08T07:08:51;102806.06;;;21.32;63.52
69245;BME280;56357;52.304;4.870;2023-10-08T07:11:20;102804.19;;;21.38;62.83
69245;BME280;56357;52.304;4.870;2023-10-08T07:13:47;102806.22;;;21.42;62.45
69245;BME280;56357;52.304;4.870;2023-10-08T07:16:14;102802.13;;;21.33;63.01
69245;BME280;56357;52.304;4.870;2023-10-08T07:18:43;102811.00;;;21.42;62.69
69245;BME280;56357;52.304;4.870;2023-10-08T07:21:15;102800.56;;;21.26;62.38
69245;BME280;56357;52.304;4.870;2023-10-08T07:23:41;102794.50;;;21.17;62.79
69245;BME280;56357;52.304;4.870;2023-10-08T07:26:22;102802.47;;;21.20;62.80
69245;BME280;56357;52.304;4.870;2023-10-08T07:28:50;102818.00;;;21.23;62.87
69245;BME280;56357;52.304;4.870;2023-10-08T07:31:23;102809.47;;;21.34;63.52
69245;BME280;56357;52.304;4.870;2023-10-08T07:33:54;102815.25;;;21.44;62.70
69245;BME280;56357;52.304;4.870;2023-10-08T07:36:26;102822.34;;;21.63;62.04
69245;BME280;56357;52.304;4.870;2023-10-08T07:38:54;102837.56;;;21.46;63.01
69245;BME280;56357;52.304;4.870;2023-10-08T07:41:20;102849.03;;;21.72;63.68
69245;BME280;56357;52.304;4.870;2023-10-08T07:43:48;102839.03;;;21.65;62.10
69245;BME280;56357;52.304;4.870;2023-10-08T07:46:27;102840.81;;;21.54;62.83
69245;BME280;56357;52.304;4.870;2023-10-08T07:48:54;102839.97;;;21.70;62.94
69245;BME280;56357;52.304;4.870;2023-10-08T07:51:20;102842.03;;;21.58;63.15
69245;BME280;56357;52.304;4.870;2023-10-08T07:53:49;102843.22;;;21.62;62.79
69245;BME280;56357;52.304;4.870;2023-10-08T07:56:19;102849.88;;;21.73;64.09
69245;BME280;56357;52.304;4.870;2023-10-08T07:58:46;102839.38;;;21.68;62.80
69245;BME280;56357;52.304;4.870;2023-10-08T08:01:13;102849.94;;;21.61;62.38
69245;BME280;56357;52.304;4.870;2023-10-08T08:03:40;102839.50;;;22.12;63.04
69245;BME280;56357;52.304;4.870;2023-10-08T08:06:08;102844.78;;;22.25;62.08
69245;BME280;56357;52.304;4.870;2023-10-08T08:08:36;102844.28;;;22.11;62.45
69245;BME280;56357;52.304;4.870;2023-10-08T08:11:07;102858.94;;;22.08;62.08
69245;BME280;56357;52.304;4.870;2023-10-08T08:13:38;102868.91;;;22.16;62.07
69245;BME280;56357;52.304;4.870;2023-10-08T08:16:07;102874.84;;;22.14;60.87
69245;BME280;56357;52.304;4.870;2023-10-08T08:18:43;102889.44;;;22.11;60.32
69245;BME280;56357;52.304;4.870;2023-10-08T08:21:10;102886.22;;;22.03;59.66
69245;BME280;56357;52.304;4.870;2023-10-08T08:23:41;102880.75;;;22.13;59.53
69245;BME280;56357;52.304;4.870;2023-10-08T08:26:16;102885.00;;;22.15;58.00
69245;BME280;56357;52.304;4.870;2023-10-08T08:28:56;102888.69;;;22.16;58.28
69245;BME280;56357;52.304;4.870;2023-10-08T08:31:25;102892.09;;;22.18;57.29
69245;BME280;56357;52.304;4.870;2023-10-08T08:33:52;102885.00;;;22.15;57.56
69245;BME280;56357;52.304;4.870;2023-10-08T08:36:23;102883.28;;;22.14;56.91
69245;BME280;56357;52.304;4.870;2023-10-08T08:38:50;102885.19;;;22.09;56.75
69245;BME280;56357;52.304;4.870;2023-10-08T08:41:17;102895.44;;;21.98;56.12
69245;BME280;56357;52.304;4.870;2023-10-08T08:43:44;102889.09;;;22.08;55.98
69245;BME280;56357;52.304;4.870;2023-10-08T08:46:13;102887.41;;;22.07;55.90
69245;BME280;56357;52.304;4.870;2023-10-08T08:48:41;102877.91;;;22.13;55.13
69245;BME280;56357;52.304;4.870;2023-10-08T08:51:09;102877.22;;;22.22;54.98
69245;BME280;56357;52.304;4.870;2023-10-08T08:53:37;102880.88;;;22.23;54.39
69245;BME280;56357;52.304;4.870;2023-10-08T08:56:06;102873.13;;;21.97;54.71
69245;BME280;56357;52.304;4.870;2023-10-08T08:58:35;102878.88;;;21.85;54.95
69245;BME280;56357;52.304;4.870;2023-10-08T09:01:03;102860.63;;;21.26;55.51
69245;BME280;56357;52.304;4.870;2023-10-08T09:03:33;102864.19;;;21.22;55.40
69245;BME280;56357;52.304;4.870;2023-10-08T09:05:59;102876.94;;;21.57;54.74
69245;BME280;56357;52.304;4.870;2023-10-08T09:08:33;102877.59;;;21.15;54.80
69245;BME280;56357;52.304;4.870;2023-10-08T09:11:00;102876.34;;;21.39;54.93
69245;BME280;56357;52.304;4.870;2023-10-08T09:13:27;102875.63;;;21.76;53.35
69245;BME280;56357;52.304;4.870;2023-10-08T09:16:03;102886.38;;;21.79;53.02
69245;BME280;56357;52.304;4.870;2023-10-08T09:18:33;102891.53;;;21.82;53.51
69245;BME280;56357;52.304;4.870;2023-10-08T09:21:15;102890.00;;;21.92;53.03
69245;BME280;56357;52.304;4.870;2023-10-08T09:23:46;102894.44;;;21.88;53.30
69245;BME280;56357;52.304;4.870;2023-10-08T09:26:18;102888.47;;;21.84;53.69
69245;BME280;56357;52.304;4.870;2023-10-08T09:28:48;102891.09;;;21.91;53.94
69245;BME280;56357;52.304;4.870;2023-10-08T09:31:16;102886.06;;;21.93;53.70
69245;BME280;56357;52.304;4.870;2023-10-08T09:33:53;102879.03;;;21.95;54.24
69245;BME280;56357;52.304;4.870;2023-10-08T09:36:20;102881.53;;;21.92;54.60
69245;BME280;56357;52.304;4.870;2023-10-08T09:38:58;102888.44;;;22.01;54.70
69245;BME280;56357;52.304;4.870;2023-10-08T09:41:28;102890.31;;;22.12;54.80
69245;BME280;56357;52.304;4.870;2023-10-08T09:43:56;102889.22;;;22.13;54.58
69245;BME280;56357;52.304;4.870;2023-10-08T09:46:31;102886.97;;;22.15;55.25
69245;BME280;56357;52.304;4.870;2023-10-08T09:49:00;102875.75;;;22.20;54.65
69245;BME280;56357;52.304;4.870;2023-10-08T09:51:32;102880.63;;;22.24;54.84
69245;BME280;56357;52.304;4.870;2023-10-08T09:54:09;102876.78;;;22.14;55.32
69245;BME280;56357;52.304;4.870;2023-10-08T09:56:39;102872.44;;;22.06;55.35
69245;BME280;56357;52.304;4.870;2023-10-08T09:59:07;102872.19;;;22.08;55.53
69245;BME280;56357;52.304;4.870;2023-10-08T10:01:37;102862.25;;;22.22;55.42
69245;BME280;56357;52.304;4.870;2023-10-08T10:04:10;102876.50;;;22.32;55.09
69245;BME280;56357;52.304;4.870;2023-10-08T10:06:37;102876.25;;;22.55;54.97
69245;BME280;56357;52.304;4.870;2023-10-08T10:09:05;102876.63;;;22.58;55.29
69245;BME280;56357;52.304;4.870;2023-10-08T10:11:35;102869.59;;;22.61;55.36
69245;BME280;56357;52.304;4.870;2023-10-08T10:14:03;102872.75;;;22.64;54.99
69245;BME280;56357;52.304;4.870;2023-10-08T10:16:31;102868.28;;;22.68;55.29
69245;BME280;56357;52.304;4.870;2023-10-08T10:18:59;102879.22;;;22.87;56.03
69245;BME280;56357;52.304;4.870;2023-10-08T10:21:31;102888.44;;;22.99;55.35
69245;BME280;56357;52.304;4.870;2023-10-08T10:23:59;102890.47;;;23.03;55.85
69245;BME280;56357;52.304;4.870;2023-10-08T10:26:31;102890.25;;;22.88;55.24
69245;BME280;56357;52.304;4.870;2023-10-08T10:31:35;102895.25;;;22.59;56.37
69245;BME280;56357;52.304;4.870;2023-10-08T10:34:06;102877.34;;;22.70;56.16
69245;BME280;56357;52.304;4.870;2023-10-08T10:36:37;102871.44;;;22.94;56.21
69245;BME280;56357;52.304;4.870;2023-10-08T10:39:05;102875.78;;;23.06;55.13
69245;BME280;56357;52.304;4.870;2023-10-08T10:41:44;102865.41;;;23.12;55.62
69245;BME280;56357;52.304;4.870;2023-10-08T10:44:15;102860.25;;;23.30;55.89
69245;BME280;56357;52.304;4.870;2023-10-08T10:46:43;102870.25;;;23.16;56.72
69245;BME280;56357;52.304;4.870;2023-10-08T10:49:17;102871.03;;;23.12;56.66
69245;BME280;56357;52.304;4.870;2023-10-08T10:51:50;102885.91;;;23.02;57.01
69245;BME280;56357;52.304;4.870;2023-10-08T10:54:25;102876.81;;;22.95;56.65
69245;BME280;56357;52.304;4.870;2023-10-08T10:56:52;102871.94;;;23.17;57.49
69245;BME280;56357;52.304;4.870;2023-10-08T10:59:34;102873.75;;;23.02;57.24
69245;BME280;56357;52.304;4.870;2023-10-08T11:02:05;102875.25;;;23.09;58.44
69245;BME280;56357;52.304;4.870;2023-10-08T11:04:36;102871.94;;;22.91;57.35
69245;BME280;56357;52.304;4.870;2023-10-08T11:07:20;102870.25;;;22.68;58.28
69245;BME280;56357;52.304;4.870;2023-10-08T11:09:47;102881.81;;;22.66;57.87
69245;BME280;56357;52.304;4.870;2023-10-08T11:12:14;102879.09;;;22.77;57.63
69245;BME280;56357;52.304;4.870;2023-10-08T11:14:48;102865.09;;;22.87;57.96
69245;BME280;56357;52.304;4.870;2023-10-08T11:17:22;102880.13;;;22.92;57.49
69245;BME280;56357;52.304;4.870;2023-10-08T11:19:49;102881.53;;;22.90;57.69
69245;BME280;56357;52.304;4.870;2023-10-08T11:22:16;102874.75;;;22.91;58.39
69245;BME280;56357;52.304;4.870;2023-10-08T11:24:45;102872.34;;;22.78;58.33
69245;BME280;56357;52.304;4.870;2023-10-08T11:27:16;102870.38;;;22.78;58.42
69245;BME280;56357;52.304;4.870;2023-10-08T11:29:52;102871.16;;;22.95;59.56
69245;BME280;56357;52.304;4.870;2023-10-08T11:32:24;102861.63;;;22.80;58.55
69245;BME280;56357;52.304;4.870;2023-10-08T11:34:55;102856.91;;;22.85;58.71
69245;BME280;56357;52.304;4.870;2023-10-08T11:37:28;102858.25;;;23.04;58.46
69245;BME280;56357;52.304;4.870;2023-10-08T11:39:56;102856.44;;;22.93;58.67
69245;BME280;56357;52.304;4.870;2023-10-08T11:42:25;102853.59;;;22.93;58.47
69245;BME280;56357;52.304;4.870;2023-10-08T11:45:10;102847.28;;;22.86;58.56
69245;BME280;56357;52.304;4.870;2023-10-08T11:47:50;102836.41;;;23.00;59.04
69245;BME280;56357;52.304;4.870;2023-10-08T11:50:26;102832.09;;;22.92;58.75
69245;BME280;56357;52.304;4.870;2023-10-08T11:53:01;102823.13;;;22.95;58.62
69245;BME280;56357;52.304;4.870;2023-10-08T11:55:29;102811.16;;;22.88;59.99
69245;BME280;56357;52.304;4.870;2023-10-08T11:57:59;102814.19;;;23.08;59.43
69245;BME280;56357;52.304;4.870;2023-10-08T12:00:26;102807.06;;;23.01;58.88
69245;BME280;56357;52.304;4.870;2023-10-08T12:02:53;102805.28;;;22.95;58.53
69245;BME280;56357;52.304;4.870;2023-10-08T12:05:21;102803.06;;;22.97;58.03
69245;BME280;56357;52.304;4.870;2023-10-08T12:07:51;102812.22;;;23.09;59.68
69245;BME280;56357;52.304;4.870;2023-10-08T12:10:18;102806.00;;;23.07;58.18
69245;BME280;56357;52.304;4.870;2023-10-08T12:12:52;102801.13;;;23.02;58.66
69245;BME280;56357;52.304;4.870;2023-10-08T12:15:22;102809.44;;;23.14;58.48
69245;BME280;56357;52.304;4.870;2023-10-08T12:17:59;102800.69;;;23.15;58.77
69245;BME280;56357;52.304;4.870;2023-10-08T12:20:38;102798.63;;;23.06;59.19
69245;BME280;56357;52.304;4.870;2023-10-08T12:23:10;102793.78;;;23.01;58.28
69245;BME280;56357;52.304;4.870;2023-10-08T12:25:44;102792.53;;;22.92;59.00
69245;BME280;56357;52.304;4.870;2023-10-08T12:28:17;102785.81;;;22.98;59.66
69245;BME280;56357;52.304;4.870;2023-10-08T12:30:44;102773.28;;;23.16;58.78
69245;BME280;56357;52.304;4.870;2023-10-08T12:33:11;102769.59;;;23.15;59.60
69245;BME280;56357;52.304;4.870;2023-10-08T12:35:44;102758.47;;;23.04;58.74
69245;BME280;56357;52.304;4.870;2023-10-08T12:38:10;102763.06;;;23.10;59.47
69245;BME280;56357;52.304;4.870;2023-10-08T12:40:38;102761.28;;;23.30;58.63
69245;BME280;56357;52.304;4.870;2023-10-08T12:43:24;102765.81;;;23.31;58.34
69245;BME280;56357;52.304;4.870;2023-10-08T12:45:53;102761.94;;;23.42;58.57
69245;BME280;56357;52.304;4.870;2023-10-08T12:48:21;102757.97;;;23.38;58.47
69245;BME280;56357;52.304;4.870;2023-10-08T12:50:49;102760.19;;;23.36;58.83
69245;BME280;56357;52.304;4.870;2023-10-08T12:53:30;102766.94;;;23.30;58.92
69245;BME280;56357;52.304;4.870;2023-10-08T12:56:04;102759.03;;;23.32;58.76
69245;BME280;56357;52.304;4.870;2023-10-08T12:58:36;102766.41;;;23.33;59.46
69245;BME280;56357;52.304;4.870;2023-10-08T13:01:07;102763.09;;;23.41;58.54
69245;BME280;56357;52.304;4.870;2023-10-08T13:03:38;102757.34;;;23.31;59.61
69245;BME280;56357;52.304;4.870;2023-10-08T13:06:10;102748.88;;;23.31;59.31
69245;BME280;56357;52.304;4.870;2023-10-08T13:08:40;102746.38;;;23.40;59.28
69245;BME280;56357;52.304;4.870;2023-10-08T13:11:07;102753.28;;;23.22;59.02
69245;BME280;56357;52.304;4.870;2023-10-08T13:13:34;102760.50;;;23.08;59.80
69245;BME280;56357;52.304;4.870;2023-10-08T13:16:02;102757.34;;;23.31;60.90
69245;BME280;56357;52.304;4.870;2023-10-08T13:18:33;102766.84;;;23.20;59.91